sensor_id;sensor_type;location;lat;lon;timestamp;P1;durP1;ratioP1;P2;durP2;ratioP2
38264;SDS011;24062;47.480;8.768;2024-02-15T00:00:20;2.27;;;1.57;;
38264;SDS011;24062;47.480;8.768;2024-02-15T00:02:50;2.30;;;1.60;;
38264;SDS011;24062;47.480;8.768;2024-02-15T00:05:17;1.60;;;1.00;;
38264;SDS011;24062;47.480;8.768;2024-02-15T00:07:44;2.00;;;1.50;;
38264;SDS011;24062;47.480;8.768;2024-02-15T00:10:15;2.17;;;1.30;;
38264;SDS011;24062;47.480;8.768;2024-02-15T00:12:42;2.03;;;1.50;;
38264;SDS011;24062;47.480;8.768;2024-02-15T00:15:09;2.23;;;1.40;;
38264;SDS011;24062;47.480;8.768;2024-02-15T00:17:36;1.70;;;1.20;;
38264;SDS011;24062;47.480;8.768;2024-02-15T00:20:03;1.83;;;1.10;;
38264;SDS011;24062;47.480;8.768;2024-02-15T00:22:34;1.90;;;1.30;;
38264;SDS011;24062;47.480;8.768;2024-02-15T00:25:01;2.10;;;1.43;;
38264;SDS011;24062;47.480;8.768;2024-02-15T00:27:31;2.07;;;1.63;;
38264;SDS011;24062;47.480;8.768;2024-02-15T00:29:59;2.13;;;1.47;;
38264;SDS011;24062;47.480;8.768;2024-02-15T00:32:26;2.13;;;1.47;;
38264;SDS011;24062;47.480;8.768;2024-02-15T00:34:53;1.67;;;1.00;;
38264;SDS011;24062;47.480;8.768;2024-02-15T00:37:20;2.20;;;1.20;;
38264;SDS011;24062;47.480;8.768;2024-02-15T00:39:47;1.57;;;0.97;;
38264;SDS011;24062;47.480;8.768;2024-02-15T00:42:14;1.73;;;1.30;;
38264;SDS011;24062;47.480;8.768;2024-02-15T00:44:42;1.70;;;1.00;;
38264;SDS011;24062;47.480;8.768;2024-02-15T00:47:09;2.10;;;1.43;;
38264;SDS011;24062;47.480;8.768;2024-02-15T00:49:37;2.30;;;1.40;;
38264;SDS011;24062;47.480;8.768;2024-02-15T00:52:04;1.80;;;1.13;;
38264;SDS011;24062;47.480;8.768;2024-02-15T00:54:31;2.40;;;1.50;;
38264;SDS011;24062;47.480;8.768;2024-02-15T00:56:58;1.67;;;1.20;;
38264;SDS011;24062;47.480;8.768;2024-02-15T00:59:25;1.93;;;1.30;;
38264;SDS011;24062;47.480;8.768;2024-02-15T01:01:53;2.47;;;1.30;;
38264;SDS011;24062;47.480;8.768;2024-02-15T01:04:20;2.00;;;1.33;;
38264;SDS011;24062;47.480;8.768;2024-02-15T01:06:47;2.17;;;1.50;;
38264;SDS011;24062;47.480;8.768;2024-02-15T01:09:14;2.13;;;1.20;;
38264;SDS011;24062;47.480;8.768;2024-02-15T01:11:41;1.70;;;1.00;;
38264;SDS011;24062;47.480;8.768;2024-02-15T01:14:08;1.90;;;1.40;;
38264;SDS011;24062;47.480;8.768;2024-02-15T01:16:35;2.27;;;1.57;;
38264;SDS011;24062;47.480;8.768;2024-02-15T01:19:04;1.90;;;1.23;;
38264;SDS011;24062;47.480;8.768;2024-02-15T01:21:31;1.93;;;1.30;;
38264;SDS011;24062;47.480;8.768;2024-02-15T01:23:58;1.67;;;1.03;;
38264;SDS011;24062;47.480;8.768;2024-02-15T01:26:25;2.60;;;1.60;;
38264;SDS011;24062;47.480;8.768;2024-02-15T01:28:52;2.10;;;1.47;;
38264;SDS011;24062;47.480;8.768;2024-02-15T01:31:19;1.60;;;0.90;;
38264;SDS011;24062;47.480;8.768;2024-02-15T01:33:47;2.03;;;1.57;;
38264;SDS011;24062;47.480;8.768;2024-02-15T01:36:16;2.10;;;1.40;;
38264;SDS011;24062;47.480;8.768;2024-02-15T01:38:44;2.40;;;1.50;;
38264;SDS011;24062;47.480;8.768;2024-02-15T01:41:11;2.10;;;1.20;;
38264;SDS011;24062;47.480;8.768;2024-02-15T01:43:38;2.20;;;1.20;;
38264;SDS011;24062;47.480;8.768;2024-02-15T01:46:09;1.70;;;1.20;;
38264;SDS011;24062;47.480;8.768;2024-02-15T01:48:37;1.63;;;0.93;;
38264;SDS011;24062;47.480;8.768;2024-02-15T01:51:06;2.13;;;1.47;;
38264;SDS011;24062;47.480;8.768;2024-02-15T01:53:36;1.77;;;1.30;;
38264;SDS011;24062;47.480;8.768;2024-02-15T01:56:04;2.17;;;1.53;;
38264;SDS011;24062;47.480;8.768;2024-02-15T01:58:31;1.73;;;1.13;;
38264;SDS011;24062;47.480;8.768;2024-02-15T02:01:00;2.10;;;1.50;;
38264;SDS011;24062;47.480;8.768;2024-02-15T02:03:27;2.00;;;1.23;;
38264;SDS011;24062;47.480;8.768;2024-02-15T02:05:55;1.90;;;1.40;;
38264;SDS011;24062;47.480;8.768;2024-02-15T02:08:23;2.20;;;1.37;;
38264;SDS011;24062;47.480;8.768;2024-02-15T02:10:51;2.00;;;1.23;;
38264;SDS011;24062;47.480;8.768;2024-02-15T02:13:19;1.80;;;1.00;;
38264;SDS011;24062;47.480;8.768;2024-02-15T02:15:46;2.13;;;1.50;;
38264;SDS011;24062;47.480;8.768;2024-02-15T02:18:13;1.60;;;1.10;;
38264;SDS011;24062;47.480;8.768;2024-02-15T02:20:39;1.73;;;1.23;;
38264;SDS011;24062;47.480;8.768;2024-02-15T02:23:07;1.90;;;1.20;;
38264;SDS011;24062;47.480;8.768;2024-02-15T02:25:40;1.90;;;1.20;;
38264;SDS011;24062;47.480;8.768;2024-02-15T02:28:08;2.13;;;1.10;;
38264;SDS011;24062;47.480;8.768;2024-02-15T02:30:36;1.50;;;0.93;;
38264;SDS011;24062;47.480;8.768;2024-02-15T02:33:10;1.67;;;1.10;;
38264;SDS011;24062;47.480;8.768;2024-02-15T02:35:40;1.90;;;1.07;;
38264;SDS011;24062;47.480;8.768;2024-02-15T02:38:09;2.20;;;1.33;;
38264;SDS011;24062;47.480;8.768;2024-02-15T02:40:36;1.60;;;1.00;;
38264;SDS011;24062;47.480;8.768;2024-02-15T02:43:04;1.80;;;0.97;;
38264;SDS011;24062;47.480;8.768;2024-02-15T02:45:31;2.73;;;1.20;;
38264;SDS011;24062;47.480;8.768;2024-02-15T02:47:58;1.50;;;0.90;;
38264;SDS011;24062;47.480;8.768;2024-02-15T02:50:25;2.00;;;1.30;;
38264;SDS011;24062;47.480;8.768;2024-02-15T02:52:52;1.63;;;1.03;;
38264;SDS011;24062;47.480;8.768;2024-02-15T02:55:19;1.80;;;1.00;;
38264;SDS011;24062;47.480;8.768;2024-02-15T02:57:46;2.07;;;1.20;;
38264;SDS011;24062;47.480;8.768;2024-02-15T03:00:15;1.80;;;1.13;;
38264;SDS011;24062;47.480;8.768;2024-02-15T03:02:42;1.80;;;1.10;;
38264;SDS011;24062;47.480;8.768;2024-02-15T03:05:10;1.83;;;1.03;;
38264;SDS011;24062;47.480;8.768;2024-02-15T03:07:37;1.57;;;1.00;;
38264;SDS011;24062;47.480;8.768;2024-02-15T03:10:06;1.87;;;1.17;;
38264;SDS011;24062;47.480;8.768;2024-02-15T03:12:34;1.90;;;1.17;;
38264;SDS011;24062;47.480;8.768;2024-02-15T03:15:01;1.73;;;1.10;;
38264;SDS011;24062;47.480;8.768;2024-02-15T03:17:30;1.90;;;1.20;;
38264;SDS011;24062;47.480;8.768;2024-02-15T03:19:57;1.63;;;1.00;;
38264;SDS011;24062;47.480;8.768;2024-02-15T03:22:25;2.70;;;1.00;;
38264;SDS011;24062;47.480;8.768;2024-02-15T03:24:52;1.63;;;1.10;;
38264;SDS011;24062;47.480;8.768;2024-02-15T03:27:19;1.63;;;1.20;;
38264;SDS011;24062;47.480;8.768;2024-02-15T03:29:48;2.00;;;1.20;;
38264;SDS011;24062;47.480;8.768;2024-02-15T03:32:15;1.70;;;1.10;;
38264;SDS011;24062;47.480;8.768;2024-02-15T03:34:43;1.60;;;0.83;;
38264;SDS011;24062;47.480;8.768;2024-02-15T03:37:10;2.17;;;1.40;;
38264;SDS011;24062;47.480;8.768;2024-02-15T03:39:37;1.80;;;1.10;;
38264;SDS011;24062;47.480;8.768;2024-02-15T03:42:04;1.63;;;1.00;;
38264;SDS011;24062;47.480;8.768;2024-02-15T03:44:31;1.90;;;1.20;;
38264;SDS011;24062;47.480;8.768;2024-02-15T03:46:58;1.77;;;1.40;;
38264;SDS011;24062;47.480;8.768;2024-02-15T03:49:25;1.40;;;0.70;;
38264;SDS011;24062;47.480;8.768;2024-02-15T03:51:53;1.53;;;0.87;;
38264;SDS011;24062;47.480;8.768;2024-02-15T03:54:20;1.87;;;1.00;;
38264;SDS011;24062;47.480;8.768;2024-02-15T03:56:48;1.60;;;0.80;;
38264;SDS011;24062;47.480;8.768;2024-02-15T03:59:18;1.50;;;0.87;;
38264;SDS011;24062;47.480;8.768;2024-02-15T04:01:50;1.70;;;1.00;;
38264;SDS011;24062;47.480;8.768;2024-02-15T04:04:17;1.80;;;1.00;;
38264;SDS011;24062;47.480;8.768;2024-02-15T04:06:46;1.80;;;1.00;;
38264;SDS011;24062;47.480;8.768;2024-02-15T04:09:14;1.60;;;0.90;;
38264;SDS011;24062;47.480;8.768;2024-02-15T04:11:42;1.80;;;1.00;;
38264;SDS011;24062;47.480;8.768;2024-02-15T04:14:11;1.57;;;0.90;;
38264;SDS011;24062;47.480;8.768;2024-02-15T04:16:38;1.57;;;0.87;;
38264;SDS011;24062;47.480;8.768;2024-02-15T04:19:05;1.93;;;1.10;;
38264;SDS011;24062;47.480;8.768;2024-02-15T04:21:31;1.40;;;0.80;;
38264;SDS011;24062;47.480;8.768;2024-02-15T04:23:58;1.50;;;0.80;;
38264;SDS011;24062;47.480;8.768;2024-02-15T04:26:26;2.27;;;0.90;;
38264;SDS011;24062;47.480;8.768;2024-02-15T04:28:55;1.43;;;0.80;;
38264;SDS011;24062;47.480;8.768;2024-02-15T04:31:23;1.70;;;0.93;;
38264;SDS011;24062;47.480;8.768;2024-02-15T04:33:51;2.03;;;0.90;;
38264;SDS011;24062;47.480;8.768;2024-02-15T04:36:19;1.40;;;0.70;;
38264;SDS011;24062;47.480;8.768;2024-02-15T04:38:48;2.00;;;1.20;;
38264;SDS011;24062;47.480;8.768;2024-02-15T04:41:16;1.60;;;0.90;;
38264;SDS011;24062;47.480;8.768;2024-02-15T04:43:47;1.67;;;0.87;;
38264;SDS011;24062;47.480;8.768;2024-02-15T04:46:13;1.53;;;0.80;;
38264;SDS011;24062;47.480;8.768;2024-02-15T04:48:40;1.60;;;0.90;;
38264;SDS011;24062;47.480;8.768;2024-02-15T04:51:08;1.90;;;0.90;;
38264;SDS011;24062;47.480;8.768;2024-02-15T04:53:35;1.73;;;0.70;;
38264;SDS011;24062;47.480;8.768;2024-02-15T04:56:04;1.60;;;0.90;;
38264;SDS011;24062;47.480;8.768;2024-02-15T04:58:38;1.50;;;0.90;;
38264;SDS011;24062;47.480;8.768;2024-02-15T05:01:12;1.43;;;0.77;;
38264;SDS011;24062;47.480;8.768;2024-02-15T05:03:40;1.50;;;1.03;;
38264;SDS011;24062;47.480;8.768;2024-02-15T05:06:07;1.57;;;0.70;;
38264;SDS011;24062;47.480;8.768;2024-02-15T05:08:34;2.53;;;0.90;;
38264;SDS011;24062;47.480;8.768;2024-02-15T05:11:03;1.50;;;0.70;;
38264;SDS011;24062;47.480;8.768;2024-02-15T05:13:31;1.57;;;0.70;;
38264;SDS011;24062;47.480;8.768;2024-02-15T05:15:58;1.60;;;0.80;;
38264;SDS011;24062;47.480;8.768;2024-02-15T05:18:26;1.40;;;0.80;;
38264;SDS011;24062;47.480;8.768;2024-02-15T05:20:55;1.30;;;0.70;;
38264;SDS011;24062;47.480;8.768;2024-02-15T05:23:22;1.40;;;0.73;;
38264;SDS011;24062;47.480;8.768;2024-02-15T05:25:49;1.60;;;0.63;;
38264;SDS011;24062;47.480;8.768;2024-02-15T05:28:16;1.67;;;0.87;;
38264;SDS011;24062;47.480;8.768;2024-02-15T05:30:44;1.80;;;1.07;;
38264;SDS011;24062;47.480;8.768;2024-02-15T05:33:10;4.73;;;0.83;;
38264;SDS011;24062;47.480;8.768;2024-02-15T05:35:39;1.73;;;0.67;;
38264;SDS011;24062;47.480;8.768;2024-02-15T05:38:06;1.50;;;0.70;;
38264;SDS011;24062;47.480;8.768;2024-02-15T05:40:36;1.50;;;0.80;;
38264;SDS011;24062;47.480;8.768;2024-02-15T05:43:03;1.83;;;1.00;;
38264;SDS011;24062;47.480;8.768;2024-02-15T05:45:31;1.37;;;0.70;;
38264;SDS011;24062;47.480;8.768;2024-02-15T05:48:03;1.60;;;0.83;;
38264;SDS011;24062;47.480;8.768;2024-02-15T05:50:33;1.77;;;0.87;;
38264;SDS011;24062;47.480;8.768;2024-02-15T05:53:02;1.80;;;0.80;;
38264;SDS011;24062;47.480;8.768;2024-02-15T05:55:29;1.40;;;0.70;;
38264;SDS011;24062;47.480;8.768;2024-02-15T05:57:59;1.60;;;0.80;;
38264;SDS011;24062;47.480;8.768;2024-02-15T06:00:26;1.40;;;0.80;;
38264;SDS011;24062;47.480;8.768;2024-02-15T06:02:54;1.30;;;0.67;;
38264;SDS011;24062;47.480;8.768;2024-02-15T06:05:21;1.50;;;0.90;;
38264;SDS011;24062;47.480;8.768;2024-02-15T06:07:49;1.33;;;0.70;;
38264;SDS011;24062;47.480;8.768;2024-02-15T06:10:17;2.63;;;0.80;;
38264;SDS011;24062;47.480;8.768;2024-02-15T06:12:44;1.50;;;0.90;;
38264;SDS011;24062;47.480;8.768;2024-02-15T06:15:11;1.40;;;0.70;;
38264;SDS011;24062;47.480;8.768;2024-02-15T06:17:41;1.50;;;0.80;;
38264;SDS011;24062;47.480;8.768;2024-02-15T06:20:11;1.47;;;0.67;;
38264;SDS011;24062;47.480;8.768;2024-02-15T06:22:39;1.90;;;0.87;;
38264;SDS011;24062;47.480;8.768;2024-02-15T06:25:06;1.40;;;0.70;;
38264;SDS011;24062;47.480;8.768;2024-02-15T06:27:36;1.50;;;0.70;;
38264;SDS011;24062;47.480;8.768;2024-02-15T06:30:07;1.60;;;0.73;;
38264;SDS011;24062;47.480;8.768;2024-02-15T06:32:52;1.33;;;0.60;;
38264;SDS011;24062;47.480;8.768;2024-02-15T06:35:37;1.40;;;0.80;;
38264;SDS011;24062;47.480;8.768;2024-02-15T06:38:21;1.70;;;0.90;;
38264;SDS011;24062;47.480;8.768;2024-02-15T06:41:06;1.43;;;0.73;;
38264;SDS011;24062;47.480;8.768;2024-02-15T06:43:35;1.50;;;0.70;;
38264;SDS011;24062;47.480;8.768;2024-02-15T06:46:02;1.20;;;0.60;;
38264;SDS011;24062;47.480;8.768;2024-02-15T06:48:32;1.80;;;0.90;;
38264;SDS011;24062;47.480;8.768;2024-02-15T06:50:59;1.57;;;0.77;;
38264;SDS011;24062;47.480;8.768;2024-02-15T06:53:26;1.50;;;0.80;;
38264;SDS011;24062;47.480;8.768;2024-02-15T06:55:53;1.53;;;0.70;;
38264;SDS011;24062;47.480;8.768;2024-02-15T06:58:19;1.40;;;0.70;;
38264;SDS011;24062;47.480;8.768;2024-02-15T07:00:49;1.50;;;0.90;;
38264;SDS011;24062;47.480;8.768;2024-02-15T07:03:16;4.33;;;0.70;;
38264;SDS011;24062;47.480;8.768;2024-02-15T07:05:43;1.50;;;0.73;;
38264;SDS011;24062;47.480;8.768;2024-02-15T07:08:10;1.50;;;0.80;;
38264;SDS011;24062;47.480;8.768;2024-02-15T07:10:37;1.50;;;0.80;;
38264;SDS011;24062;47.480;8.768;2024-02-15T07:13:05;1.30;;;0.60;;
38264;SDS011;24062;47.480;8.768;2024-02-15T07:15:32;1.60;;;0.80;;
38264;SDS011;24062;47.480;8.768;2024-02-15T07:18:04;1.50;;;0.60;;
38264;SDS011;24062;47.480;8.768;2024-02-15T07:20:32;1.53;;;0.73;;
38264;SDS011;24062;47.480;8.768;2024-02-15T07:22:59;1.40;;;0.80;;
38264;SDS011;24062;47.480;8.768;2024-02-15T07:25:26;1.50;;;0.80;;
38264;SDS011;24062;47.480;8.768;2024-02-15T07:27:53;1.30;;;0.70;;
38264;SDS011;24062;47.480;8.768;2024-02-15T07:30:22;1.60;;;0.90;;
38264;SDS011;24062;47.480;8.768;2024-02-15T07:32:49;1.50;;;0.80;;
38264;SDS011;24062;47.480;8.768;2024-02-15T07:35:17;1.60;;;1.00;;
38264;SDS011;24062;47.480;8.768;2024-02-15T07:37:53;1.57;;;0.90;;
38264;SDS011;24062;47.480;8.768;2024-02-15T07:40:23;1.63;;;0.80;;
38264;SDS011;24062;47.480;8.768;2024-02-15T07:42:54;1.50;;;0.90;;
38264;SDS011;24062;47.480;8.768;2024-02-15T07:45:22;1.20;;;0.50;;
38264;SDS011;24062;47.480;8.768;2024-02-15T07:47:49;1.50;;;0.70;;
38264;SDS011;24062;47.480;8.768;2024-02-15T07:50:17;1.20;;;0.50;;
38264;SDS011;24062;47.480;8.768;2024-02-15T07:52:47;1.40;;;0.80;;
38264;SDS011;24062;47.480;8.768;2024-02-15T07:55:15;1.40;;;0.60;;
38264;SDS011;24062;47.480;8.768;2024-02-15T07:57:42;1.50;;;0.80;;
38264;SDS011;24062;47.480;8.768;2024-02-15T08:00:09;1.50;;;0.80;;
38264;SDS011;24062;47.480;8.768;2024-02-15T08:02:37;1.30;;;0.60;;
38264;SDS011;24062;47.480;8.768;2024-02-15T08:05:05;1.30;;;0.70;;
38264;SDS011;24062;47.480;8.768;2024-02-15T08:07:36;1.30;;;0.70;;
38264;SDS011;24062;47.480;8.768;2024-02-15T08:10:05;1.23;;;0.60;;
38264;SDS011;24062;47.480;8.768;2024-02-15T08:12:37;1.67;;;0.70;;
38264;SDS011;24062;47.480;8.768;2024-02-15T08:15:05;1.50;;;0.70;;
38264;SDS011;24062;47.480;8.768;2024-02-15T08:17:36;1.70;;;0.87;;
38264;SDS011;24062;47.480;8.768;2024-02-15T08:20:05;1.50;;;0.80;;
38264;SDS011;24062;47.480;8.768;2024-02-15T08:22:33;1.33;;;0.70;;
38264;SDS011;24062;47.480;8.768;2024-02-15T08:25:05;1.37;;;0.70;;
38264;SDS011;24062;47.480;8.768;2024-02-15T08:27:35;1.30;;;0.70;;
38264;SDS011;24062;47.480;8.768;2024-02-15T08:30:06;1.37;;;0.70;;
38264;SDS011;24062;47.480;8.768;2024-02-15T08:32:35;1.50;;;0.83;;
38264;SDS011;24062;47.480;8.768;2024-02-15T08:35:02;1.40;;;0.60;;
38264;SDS011;24062;47.480;8.768;2024-02-15T08:37:29;1.30;;;0.63;;
38264;SDS011;24062;47.480;8.768;2024-02-15T08:39:57;1.30;;;0.60;;
38264;SDS011;24062;47.480;8.768;2024-02-15T08:42:26;1.40;;;0.80;;
38264;SDS011;24062;47.480;8.768;2024-02-15T08:44:53;1.80;;;0.90;;
38264;SDS011;24062;47.480;8.768;2024-02-15T08:47:21;1.87;;;1.00;;
38264;SDS011;24062;47.480;8.768;2024-02-15T08:49:48;1.40;;;0.83;;
38264;SDS011;24062;47.480;8.768;2024-02-15T08:52:15;1.20;;;0.60;;
38264;SDS011;24062;47.480;8.768;2024-02-15T08:54:43;1.60;;;0.80;;
38264;SDS011;24062;47.480;8.768;2024-02-15T08:57:10;1.80;;;0.97;;
38264;SDS011;24062;47.480;8.768;2024-02-15T08:59:40;1.50;;;0.73;;
38264;SDS011;24062;47.480;8.768;2024-02-15T09:02:08;2.47;;;0.70;;
38264;SDS011;24062;47.480;8.768;2024-02-15T09:04:35;1.40;;;0.70;;
38264;SDS011;24062;47.480;8.768;2024-02-15T09:07:01;1.40;;;0.80;;
38264;SDS011;24062;47.480;8.768;2024-02-15T09:09:29;1.60;;;0.80;;
38264;SDS011;24062;47.480;8.768;2024-02-15T09:12:00;1.40;;;0.80;;
38264;SDS011;24062;47.480;8.768;2024-02-15T09:14:30;1.60;;;0.80;;
38264;SDS011;24062;47.480;8.768;2024-02-15T09:16:59;1.57;;;0.80;;
38264;SDS011;24062;47.480;8.768;2024-02-15T09:19:26;1.50;;;0.83;;
38264;SDS011;24062;47.480;8.768;2024-02-15T09:21:53;1.70;;;1.00;;
38264;SDS011;24062;47.480;8.768;2024-02-15T09:24:20;1.40;;;0.77;;
38264;SDS011;24062;47.480;8.768;2024-02-15T09:26:47;1.70;;;1.00;;
38264;SDS011;24062;47.480;8.768;2024-02-15T09:29:14;1.73;;;0.90;;
38264;SDS011;24062;47.480;8.768;2024-02-15T09:31:40;1.60;;;0.80;;
38264;SDS011;24062;47.480;8.768;2024-02-15T09:34:09;1.53;;;0.90;;
38264;SDS011;24062;47.480;8.768;2024-02-15T09:36:38;1.50;;;0.77;;
38264;SDS011;24062;47.480;8.768;2024-02-15T09:39:05;1.40;;;0.80;;
38264;SDS011;24062;47.480;8.768;2024-02-15T09:41:32;1.43;;;0.70;;
38264;SDS011;24062;47.480;8.768;2024-02-15T09:43:59;1.50;;;0.70;;
38264;SDS011;24062;47.480;8.768;2024-02-15T09:46:28;1.30;;;0.80;;
38264;SDS011;24062;47.480;8.768;2024-02-15T09:48:59;1.70;;;1.00;;
38264;SDS011;24062;47.480;8.768;2024-02-15T09:51:29;1.60;;;0.97;;
38264;SDS011;24062;47.480;8.768;2024-02-15T09:53:59;1.40;;;0.70;;
38264;SDS011;24062;47.480;8.768;2024-02-15T09:56:27;1.40;;;0.83;;
38264;SDS011;24062;47.480;8.768;2024-02-15T09:58:57;1.37;;;0.70;;
38264;SDS011;24062;47.480;8.768;2024-02-15T10:01:25;4.80;;;1.10;;
38264;SDS011;24062;47.480;8.768;2024-02-15T10:03:56;1.50;;;0.80;;
38264;SDS011;24062;47.480;8.768;2024-02-15T10:06:25;1.60;;;0.90;;
38264;SDS011;24062;47.480;8.768;2024-02-15T10:08:54;1.30;;;0.70;;
38264;SDS011;24062;47.480;8.768;2024-02-15T10:11:53;1.90;;;0.90;;
38264;SDS011;24062;47.480;8.768;2024-02-15T10:14:21;1.43;;;0.90;;
38264;SDS011;24062;47.480;8.768;2024-02-15T10:16:48;1.37;;;0.70;;
38264;SDS011;24062;47.480;8.768;2024-02-15T10:19:15;1.50;;;0.87;;
38264;SDS011;24062;47.480;8.768;2024-02-15T10:21:43;1.30;;;0.63;;
38264;SDS011;24062;47.480;8.768;2024-02-15T10:24:11;1.43;;;0.83;;
38264;SDS011;24062;47.480;8.768;2024-02-15T10:26:39;1.53;;;0.90;;
38264;SDS011;24062;47.480;8.768;2024-02-15T10:29:06;1.40;;;0.80;;
38264;SDS011;24062;47.480;8.768;2024-02-15T10:31:35;1.47;;;1.00;;
38264;SDS011;24062;47.480;8.768;2024-02-15T10:34:03;1.70;;;0.80;;
38264;SDS011;24062;47.480;8.768;2024-02-15T10:36:32;1.20;;;0.60;;
38264;SDS011;24062;47.480;8.768;2024-02-15T10:39:17;1.70;;;0.90;;
38264;SDS011;24062;47.480;8.768;2024-02-15T10:41:45;1.83;;;1.00;;
38264;SDS011;24062;47.480;8.768;2024-02-15T10:44:16;1.40;;;0.70;;
38264;SDS011;24062;47.480;8.768;2024-02-15T10:46:48;1.30;;;0.67;;
38264;SDS011;24062;47.480;8.768;2024-02-15T10:49:19;1.50;;;0.77;;
38264;SDS011;24062;47.480;8.768;2024-02-15T10:51:48;2.17;;;0.80;;
38264;SDS011;24062;47.480;8.768;2024-02-15T10:54:22;1.80;;;1.00;;
38264;SDS011;24062;47.480;8.768;2024-02-15T10:57:09;1.60;;;1.00;;
38264;SDS011;24062;47.480;8.768;2024-02-15T10:59:38;1.50;;;0.60;;
38264;SDS011;24062;47.480;8.768;2024-02-15T11:02:20;1.77;;;0.97;;
38264;SDS011;24062;47.480;8.768;2024-02-15T11:04:54;1.40;;;0.80;;
38264;SDS011;24062;47.480;8.768;2024-02-15T11:07:27;1.40;;;0.70;;
38264;SDS011;24062;47.480;8.768;2024-02-15T11:09:56;1.50;;;0.80;;
38264;SDS011;24062;47.480;8.768;2024-02-15T11:12:23;1.40;;;0.70;;
38264;SDS011;24062;47.480;8.768;2024-02-15T11:14:52;1.40;;;0.87;;
38264;SDS011;24062;47.480;8.768;2024-02-15T11:23:27;1.50;;;0.80;;
38264;SDS011;24062;47.480;8.768;2024-02-15T11:25:56;1.67;;;0.90;;
38264;SDS011;24062;47.480;8.768;2024-02-15T11:28:38;1.40;;;0.80;;
38264;SDS011;24062;47.480;8.768;2024-02-15T11:31:09;1.50;;;0.80;;
38264;SDS011;24062;47.480;8.768;2024-02-15T11:33:38;1.47;;;0.80;;
38264;SDS011;24062;47.480;8.768;2024-02-15T11:36:05;1.30;;;0.70;;
38264;SDS011;24062;47.480;8.768;2024-02-15T11:38:33;1.47;;;0.93;;
38264;SDS011;24062;47.480;8.768;2024-02-15T11:41:05;1.57;;;0.80;;
38264;SDS011;24062;47.480;8.768;2024-02-15T11:43:46;1.53;;;0.90;;
38264;SDS011;24062;47.480;8.768;2024-02-15T11:46:24;1.40;;;0.70;;
38264;SDS011;24062;47.480;8.768;2024-02-15T11:48:55;1.40;;;0.73;;
38264;SDS011;24062;47.480;8.768;2024-02-15T11:51:24;1.60;;;1.00;;
38264;SDS011;24062;47.480;8.768;2024-02-15T11:53:58;1.60;;;0.73;;
38264;SDS011;24062;47.480;8.768;2024-02-15T11:56:33;1.40;;;0.80;;
38264;SDS011;24062;47.480;8.768;2024-02-15T11:59:19;1.30;;;0.60;;
38264;SDS011;24062;47.480;8.768;2024-02-15T12:01:57;1.87;;;0.87;;
38264;SDS011;24062;47.480;8.768;2024-02-15T12:04:41;1.53;;;0.80;;
38264;SDS011;24062;47.480;8.768;2024-02-15T12:07:22;1.50;;;0.90;;
38264;SDS011;24062;47.480;8.768;2024-02-15T12:10:07;1.50;;;0.80;;
38264;SDS011;24062;47.480;8.768;2024-02-15T12:12:59;1.30;;;0.73;;
38264;SDS011;24062;47.480;8.768;2024-02-15T12:15:54;1.40;;;0.70;;
38264;SDS011;24062;47.480;8.768;2024-02-15T12:18:40;1.70;;;0.90;;
38264;SDS011;24062;47.480;8.768;2024-02-15T12:21:09;1.50;;;0.80;;
38264;SDS011;24062;47.480;8.768;2024-02-15T12:23:38;1.40;;;0.80;;
38264;SDS011;24062;47.480;8.768;2024-02-15T12:26:06;1.43;;;0.70;;
38264;SDS011;24062;47.480;8.768;2024-02-15T12:28:35;1.40;;;0.73;;
38264;SDS011;24062;47.480;8.768;2024-02-15T12:31:03;1.57;;;0.90;;
38264;SDS011;24062;47.480;8.768;2024-02-15T12:33:32;1.50;;;0.80;;
38264;SDS011;24062;47.480;8.768;2024-02-15T12:36:06;1.40;;;0.80;;
38264;SDS011;24062;47.480;8.768;2024-02-15T12:38:33;1.50;;;0.70;;
38264;SDS011;24062;47.480;8.768;2024-02-15T12:41:03;1.27;;;0.67;;
38264;SDS011;24062;47.480;8.768;2024-02-15T12:43:44;1.60;;;0.80;;
38264;SDS011;24062;47.480;8.768;2024-02-15T12:46:11;1.47;;;0.80;;
38264;SDS011;24062;47.480;8.768;2024-02-15T12:48:38;1.70;;;0.70;;
38264;SDS011;24062;47.480;8.768;2024-02-15T12:51:12;1.80;;;1.00;;
38264;SDS011;24062;47.480;8.768;2024-02-15T12:53:40;1.47;;;0.77;;
38264;SDS011;24062;47.480;8.768;2024-02-15T12:56:07;1.43;;;0.73;;
38264;SDS011;24062;47.480;8.768;2024-02-15T12:58:35;1.50;;;0.83;;
38264;SDS011;24062;47.480;8.768;2024-02-15T13:01:05;1.50;;;0.90;;
38264;SDS011;24062;47.480;8.768;2024-02-15T13:03:34;1.27;;;0.60;;
38264;SDS011;24062;47.480;8.768;2024-02-15T13:06:01;1.30;;;0.60;;
38264;SDS011;24062;47.480;8.768;2024-02-15T13:08:28;1.40;;;0.70;;
38264;SDS011;24062;47.480;8.768;2024-02-15T13:10:56;1.30;;;0.60;;
38264;SDS011;24062;47.480;8.768;2024-02-15T13:13:23;1.70;;;1.00;;
38264;SDS011;24062;47.480;8.768;2024-02-15T13:15:52;1.40;;;0.80;;
38264;SDS011;24062;47.480;8.768;2024-02-15T13:18:20;1.70;;;0.80;;
38264;SDS011;24062;47.480;8.768;2024-02-15T13:20:47;1.30;;;0.70;;
38264;SDS011;24062;47.480;8.768;2024-02-15T13:23:17;1.50;;;0.80;;
38264;SDS011;24062;47.480;8.768;2024-02-15T13:25:47;1.23;;;0.60;;
38264;SDS011;24062;47.480;8.768;2024-02-15T13:28:15;1.40;;;0.70;;
38264;SDS011;24062;47.480;8.768;2024-02-15T13:30:42;1.30;;;0.60;;
38264;SDS011;24062;47.480;8.768;2024-02-15T13:33:10;1.47;;;0.80;;
38264;SDS011;24062;47.480;8.768;2024-02-15T13:35:38;1.43;;;0.70;;
38264;SDS011;24062;47.480;8.768;2024-02-15T13:38:06;1.40;;;0.70;;
38264;SDS011;24062;47.480;8.768;2024-02-15T13:40:39;1.40;;;0.80;;
38264;SDS011;24062;47.480;8.768;2024-02-15T13:43:07;1.30;;;0.60;;
38264;SDS011;24062;47.480;8.768;2024-02-15T13:45:38;1.40;;;0.80;;
38264;SDS011;24062;47.480;8.768;2024-02-15T13:48:06;1.60;;;0.80;;
38264;SDS011;24062;47.480;8.768;2024-02-15T13:50:34;1.33;;;0.70;;
38264;SDS011;24062;47.480;8.768;2024-02-15T13:53:02;1.60;;;0.80;;
38264;SDS011;24062;47.480;8.768;2024-02-15T13:55:30;1.43;;;0.70;;
38264;SDS011;24062;47.480;8.768;2024-02-15T13:57:57;2.33;;;0.87;;
38264;SDS011;24062;47.480;8.768;2024-02-15T14:00:26;1.37;;;0.60;;
38264;SDS011;24062;47.480;8.768;2024-02-15T14:02:57;1.60;;;0.80;;
38264;SDS011;24062;47.480;8.768;2024-02-15T14:05:25;1.60;;;0.90;;
38264;SDS011;24062;47.480;8.768;2024-02-15T14:07:54;1.30;;;0.80;;
38264;SDS011;24062;47.480;8.768;2024-02-15T14:10:24;1.40;;;0.80;;
38264;SDS011;24062;47.480;8.768;2024-02-15T14:12:52;1.33;;;0.63;;
38264;SDS011;24062;47.480;8.768;2024-02-15T14:15:23;1.40;;;0.80;;
38264;SDS011;24062;47.480;8.768;2024-02-15T14:17:50;1.37;;;0.70;;
38264;SDS011;24062;47.480;8.768;2024-02-15T14:20:18;1.70;;;1.00;;
38264;SDS011;24062;47.480;8.768;2024-02-15T14:22:46;1.47;;;0.77;;
38264;SDS011;24062;47.480;8.768;2024-02-15T14:25:15;1.37;;;0.73;;
38264;SDS011;24062;47.480;8.768;2024-02-15T14:27:43;1.50;;;0.70;;
38264;SDS011;24062;47.480;8.768;2024-02-15T14:30:11;1.40;;;0.70;;
38264;SDS011;24062;47.480;8.768;2024-02-15T14:32:55;1.50;;;0.80;;
38264;SDS011;24062;47.480;8.768;2024-02-15T14:35:32;1.43;;;0.80;;
38264;SDS011;24062;47.480;8.768;2024-02-15T14:38:01;1.20;;;0.50;;
38264;SDS011;24062;47.480;8.768;2024-02-15T14:40:31;1.30;;;0.60;;
38264;SDS011;24062;47.480;8.768;2024-02-15T14:43:00;1.20;;;0.50;;
38264;SDS011;24062;47.480;8.768;2024-02-15T14:45:29;1.40;;;0.70;;
38264;SDS011;24062;47.480;8.768;2024-02-15T14:47:56;1.50;;;0.80;;
38264;SDS011;24062;47.480;8.768;2024-02-15T14:50:24;1.40;;;0.70;;
38264;SDS011;24062;47.480;8.768;2024-02-15T14:52:51;1.50;;;0.70;;
38264;SDS011;24062;47.480;8.768;2024-02-15T14:55:18;1.40;;;0.70;;
38264;SDS011;24062;47.480;8.768;2024-02-15T14:57:45;1.47;;;0.83;;
38264;SDS011;24062;47.480;8.768;2024-02-15T15:00:14;1.30;;;0.70;;
38264;SDS011;24062;47.480;8.768;2024-02-15T15:02:43;1.20;;;0.60;;
38264;SDS011;24062;47.480;8.768;2024-02-15T15:05:11;1.40;;;0.70;;